sensor_id;sensor_type;location;lat;lon;timestamp;P1;durP1;ratioP1;P2;durP2;ratioP2
9997;SDS011;5038;53.064;8.624;2022-12-05T00:01:35;38.80;;;34.50;;
9997;SDS011;5038;53.064;8.624;2022-12-05T00:04:11;38.70;;;33.73;;
9997;SDS011;5038;53.064;8.624;2022-12-05T00:06:40;43.70;;;35.67;;
9997;SDS011;5038;53.064;8.624;2022-12-05T00:09:10;42.60;;;36.77;;
9997;SDS011;5038;53.064;8.624;2022-12-05T00:11:40;39.23;;;35.00;;
9997;SDS011;5038;53.064;8.624;2022-12-05T00:14:10;41.27;;;34.90;;
9997;SDS011;5038;53.064;8.624;2022-12-05T00:16:39;41.03;;;36.53;;
9997;SDS011;5038;53.064;8.624;2022-12-05T00:19:10;45.43;;;38.77;;
9997;SDS011;5038;53.064;8.624;2022-12-05T00:21:40;41.73;;;37.30;;
9997;SDS011;5038;53.064;8.624;2022-12-05T00:24:12;41.67;;;37.10;;
9997;SDS011;5038;53.064;8.624;2022-12-05T00:26:42;40.60;;;35.13;;
9997;SDS011;5038;53.064;8.624;2022-12-05T00:29:10;41.13;;;36.83;;
9997;SDS011;5038;53.064;8.624;2022-12-05T00:31:39;41.47;;;36.90;;
9997;SDS011;5038;53.064;8.624;2022-12-05T00:34:07;43.77;;;37.30;;
9997;SDS011;5038;53.064;8.624;2022-12-05T00:36:35;41.37;;;36.83;;
9997;SDS011;5038;53.064;8.624;2022-12-05T00:39:04;42.80;;;37.30;;
9997;SDS011;5038;53.064;8.624;2022-12-05T00:41:36;41.00;;;36.27;;
9997;SDS011;5038;53.064;8.624;2022-12-05T00:44:04;38.17;;;33.63;;
9997;SDS011;5038;53.064;8.624;2022-12-05T00:46:33;41.57;;;36.20;;
9997;SDS011;5038;53.064;8.624;2022-12-05T00:49:03;41.67;;;37.20;;
9997;SDS011;5038;53.064;8.624;2022-12-05T00:51:33;38.80;;;34.63;;
9997;SDS011;5038;53.064;8.624;2022-12-05T00:54:03;40.50;;;36.10;;
9997;SDS011;5038;53.064;8.624;2022-12-05T00:56:33;41.93;;;37.00;;
9997;SDS011;5038;53.064;8.624;2022-12-05T00:59:03;41.50;;;36.10;;
9997;SDS011;5038;53.064;8.624;2022-12-05T01:01:33;39.47;;;34.97;;
9997;SDS011;5038;53.064;8.624;2022-12-05T01:04:03;43.77;;;37.67;;
9997;SDS011;5038;53.064;8.624;2022-12-05T01:06:34;40.13;;;35.30;;
9997;SDS011;5038;53.064;8.624;2022-12-05T01:09:03;42.93;;;37.10;;
9997;SDS011;5038;53.064;8.624;2022-12-05T01:11:32;37.90;;;33.90;;
9997;SDS011;5038;53.064;8.624;2022-12-05T01:14:08;39.40;;;34.73;;
9997;SDS011;5038;53.064;8.624;2022-12-05T01:16:37;39.70;;;35.40;;
9997;SDS011;5038;53.064;8.624;2022-12-05T01:19:09;43.10;;;35.50;;
9997;SDS011;5038;53.064;8.624;2022-12-05T01:21:39;39.10;;;34.13;;
9997;SDS011;5038;53.064;8.624;2022-12-05T01:24:07;40.30;;;35.53;;
9997;SDS011;5038;53.064;8.624;2022-12-05T01:26:36;39.90;;;35.53;;
9997;SDS011;5038;53.064;8.624;2022-12-05T01:29:04;40.13;;;34.03;;
9997;SDS011;5038;53.064;8.624;2022-12-05T01:31:34;41.90;;;34.80;;
9997;SDS011;5038;53.064;8.624;2022-12-05T01:34:05;38.03;;;33.87;;
9997;SDS011;5038;53.064;8.624;2022-12-05T01:36:34;42.20;;;35.07;;
9997;SDS011;5038;53.064;8.624;2022-12-05T01:39:04;40.90;;;36.07;;
9997;SDS011;5038;53.064;8.624;2022-12-05T01:41:34;40.60;;;34.40;;
9997;SDS011;5038;53.064;8.624;2022-12-05T01:44:04;38.07;;;33.83;;
9997;SDS011;5038;53.064;8.624;2022-12-05T01:46:35;38.20;;;33.90;;
9997;SDS011;5038;53.064;8.624;2022-12-05T01:49:06;39.70;;;35.40;;
9997;SDS011;5038;53.064;8.624;2022-12-05T01:51:37;40.07;;;34.00;;
9997;SDS011;5038;53.064;8.624;2022-12-05T01:54:07;42.67;;;34.77;;
9997;SDS011;5038;53.064;8.624;2022-12-05T01:56:36;40.40;;;34.00;;
9997;SDS011;5038;53.064;8.624;2022-12-05T01:59:08;39.87;;;34.13;;
9997;SDS011;5038;53.064;8.624;2022-12-05T02:01:38;40.27;;;33.43;;
9997;SDS011;5038;53.064;8.624;2022-12-05T02:04:07;41.50;;;34.87;;
9997;SDS011;5038;53.064;8.624;2022-12-05T02:06:36;40.93;;;34.77;;
9997;SDS011;5038;53.064;8.624;2022-12-05T02:09:05;39.67;;;35.47;;
9997;SDS011;5038;53.064;8.624;2022-12-05T02:11:33;41.57;;;35.43;;
9997;SDS011;5038;53.064;8.624;2022-12-05T02:14:09;46.57;;;37.57;;
9997;SDS011;5038;53.064;8.624;2022-12-05T02:16:51;43.20;;;35.67;;
9997;SDS011;5038;53.064;8.624;2022-12-05T02:22:30;45.23;;;38.30;;
9997;SDS011;5038;53.064;8.624;2022-12-05T02:25:24;48.20;;;38.80;;
9997;SDS011;5038;53.064;8.624;2022-12-05T02:28:13;45.10;;;36.00;;
9997;SDS011;5038;53.064;8.624;2022-12-05T02:31:05;45.90;;;37.60;;
9997;SDS011;5038;53.064;8.624;2022-12-05T02:33:38;47.90;;;37.43;;
9997;SDS011;5038;53.064;8.624;2022-12-05T02:36:12;42.50;;;34.60;;
9997;SDS011;5038;53.064;8.624;2022-12-05T02:38:45;44.97;;;35.00;;
9997;SDS011;5038;53.064;8.624;2022-12-05T02:41:20;45.20;;;37.03;;
9997;SDS011;5038;53.064;8.624;2022-12-05T02:43:54;45.70;;;35.23;;
9997;SDS011;5038;53.064;8.624;2022-12-05T02:46:28;43.53;;;35.70;;
9997;SDS011;5038;53.064;8.624;2022-12-05T02:48:59;40.70;;;35.10;;
9997;SDS011;5038;53.064;8.624;2022-12-05T02:51:30;44.97;;;34.00;;
9997;SDS011;5038;53.064;8.624;2022-12-05T02:54:02;47.63;;;36.00;;
9997;SDS011;5038;53.064;8.624;2022-12-05T02:56:35;44.03;;;34.57;;
9997;SDS011;5038;53.064;8.624;2022-12-05T02:59:04;41.10;;;34.90;;
9997;SDS011;5038;53.064;8.624;2022-12-05T03:01:33;43.00;;;36.33;;
9997;SDS011;5038;53.064;8.624;2022-12-05T03:04:03;44.20;;;35.33;;
9997;SDS011;5038;53.064;8.624;2022-12-05T03:06:33;44.00;;;35.73;;
9997;SDS011;5038;53.064;8.624;2022-12-05T03:09:05;46.80;;;38.43;;
9997;SDS011;5038;53.064;8.624;2022-12-05T03:11:36;42.80;;;34.90;;
9997;SDS011;5038;53.064;8.624;2022-12-05T03:14:09;42.87;;;33.63;;
9997;SDS011;5038;53.064;8.624;2022-12-05T03:16:43;44.60;;;36.10;;
9997;SDS011;5038;53.064;8.624;2022-12-05T03:19:16;43.27;;;34.50;;
9997;SDS011;5038;53.064;8.624;2022-12-05T03:21:51;41.90;;;33.50;;
9997;SDS011;5038;53.064;8.624;2022-12-05T03:24:22;39.63;;;32.97;;
9997;SDS011;5038;53.064;8.624;2022-12-05T03:26:53;38.83;;;34.27;;
9997;SDS011;5038;53.064;8.624;2022-12-05T03:29:30;36.63;;;31.63;;
9997;SDS011;5038;53.064;8.624;2022-12-05T03:32:08;39.40;;;32.23;;
9997;SDS011;5038;53.064;8.624;2022-12-05T03:34:44;40.97;;;35.00;;
9997;SDS011;5038;53.064;8.624;2022-12-05T03:37:19;43.60;;;34.83;;
9997;SDS011;5038;53.064;8.624;2022-12-05T03:39:54;40.47;;;33.17;;
9997;SDS011;5038;53.064;8.624;2022-12-05T03:42:31;38.67;;;32.10;;
9997;SDS011;5038;53.064;8.624;2022-12-05T03:45:04;35.13;;;30.53;;
9997;SDS011;5038;53.064;8.624;2022-12-05T03:47:37;39.90;;;33.73;;
9997;SDS011;5038;53.064;8.624;2022-12-05T03:50:14;45.87;;;34.00;;
9997;SDS011;5038;53.064;8.624;2022-12-05T03:52:49;41.07;;;33.27;;
9997;SDS011;5038;53.064;8.624;2022-12-05T03:55:43;40.27;;;32.63;;
9997;SDS011;5038;53.064;8.624;2022-12-05T03:58:14;39.73;;;32.83;;
9997;SDS011;5038;53.064;8.624;2022-12-05T04:00:48;41.27;;;33.40;;
9997;SDS011;5038;53.064;8.624;2022-12-05T04:03:21;40.53;;;33.70;;
9997;SDS011;5038;53.064;8.624;2022-12-05T04:06:05;43.77;;;33.50;;
9997;SDS011;5038;53.064;8.624;2022-12-05T04:08:39;34.90;;;30.60;;
9997;SDS011;5038;53.064;8.624;2022-12-05T04:11:12;36.43;;;30.50;;
9997;SDS011;5038;53.064;8.624;2022-12-05T04:13:43;38.23;;;31.60;;
9997;SDS011;5038;53.064;8.624;2022-12-05T04:16:16;38.50;;;31.60;;
9997;SDS011;5038;53.064;8.624;2022-12-05T04:19:08;37.43;;;31.23;;
9997;SDS011;5038;53.064;8.624;2022-12-05T04:21:39;38.67;;;33.10;;
9997;SDS011;5038;53.064;8.624;2022-12-05T04:24:11;36.20;;;30.63;;
9997;SDS011;5038;53.064;8.624;2022-12-05T04:27:05;34.73;;;30.37;;
9997;SDS011;5038;53.064;8.624;2022-12-05T04:29:42;40.07;;;31.30;;
9997;SDS011;5038;53.064;8.624;2022-12-05T04:32:15;37.43;;;30.80;;
9997;SDS011;5038;53.064;8.624;2022-12-05T04:34:48;37.30;;;32.23;;
9997;SDS011;5038;53.064;8.624;2022-12-05T04:37:21;36.50;;;30.87;;
9997;SDS011;5038;53.064;8.624;2022-12-05T04:39:52;40.40;;;31.57;;
9997;SDS011;5038;53.064;8.624;2022-12-05T04:42:25;37.77;;;31.10;;
9997;SDS011;5038;53.064;8.624;2022-12-05T04:44:57;38.70;;;32.10;;
9997;SDS011;5038;53.064;8.624;2022-12-05T04:47:30;33.97;;;30.27;;
9997;SDS011;5038;53.064;8.624;2022-12-05T04:50:05;34.53;;;30.27;;
9997;SDS011;5038;53.064;8.624;2022-12-05T04:52:37;37.50;;;30.83;;
9997;SDS011;5038;53.064;8.624;2022-12-05T04:55:06;35.53;;;30.07;;
9997;SDS011;5038;53.064;8.624;2022-12-05T04:57:39;37.70;;;31.47;;
9997;SDS011;5038;53.064;8.624;2022-12-05T05:00:12;34.70;;;28.27;;
9997;SDS011;5038;53.064;8.624;2022-12-05T05:02:41;36.87;;;30.93;;
9997;SDS011;5038;53.064;8.624;2022-12-05T05:05:15;37.13;;;29.80;;
9997;SDS011;5038;53.064;8.624;2022-12-05T05:07:46;35.10;;;30.93;;
9997;SDS011;5038;53.064;8.624;2022-12-05T05:10:19;39.87;;;30.90;;
9997;SDS011;5038;53.064;8.624;2022-12-05T05:12:53;35.60;;;30.17;;
9997;SDS011;5038;53.064;8.624;2022-12-05T05:15:21;35.90;;;31.80;;
9997;SDS011;5038;53.064;8.624;2022-12-05T05:17:49;33.23;;;29.63;;
9997;SDS011;5038;53.064;8.624;2022-12-05T05:20:19;37.83;;;32.00;;
9997;SDS011;5038;53.064;8.624;2022-12-05T05:22:50;36.13;;;30.90;;
9997;SDS011;5038;53.064;8.624;2022-12-05T05:25:19;35.93;;;30.03;;
9997;SDS011;5038;53.064;8.624;2022-12-05T05:27:48;34.20;;;30.60;;
9997;SDS011;5038;53.064;8.624;2022-12-05T05:30:17;37.67;;;31.80;;
9997;SDS011;5038;53.064;8.624;2022-12-05T05:32:46;39.20;;;31.97;;
9997;SDS011;5038;53.064;8.624;2022-12-05T05:35:14;37.03;;;30.80;;
9997;SDS011;5038;53.064;8.624;2022-12-05T05:37:44;36.07;;;31.07;;
9997;SDS011;5038;53.064;8.624;2022-12-05T05:40:12;34.90;;;30.70;;
9997;SDS011;5038;53.064;8.624;2022-12-05T05:42:42;36.80;;;32.20;;
9997;SDS011;5038;53.064;8.624;2022-12-05T05:45:11;35.43;;;31.13;;
9997;SDS011;5038;53.064;8.624;2022-12-05T05:47:41;34.60;;;30.33;;
9997;SDS011;5038;53.064;8.624;2022-12-05T05:50:09;35.50;;;31.17;;
9997;SDS011;5038;53.064;8.624;2022-12-05T05:52:48;35.07;;;30.57;;
9997;SDS011;5038;53.064;8.624;2022-12-05T05:55:16;35.43;;;30.17;;
9997;SDS011;5038;53.064;8.624;2022-12-05T05:57:44;35.70;;;29.03;;
9997;SDS011;5038;53.064;8.624;2022-12-05T06:00:13;34.20;;;28.73;;
9997;SDS011;5038;53.064;8.624;2022-12-05T06:02:42;36.00;;;30.50;;
9997;SDS011;5038;53.064;8.624;2022-12-05T06:05:10;33.60;;;29.13;;
9997;SDS011;5038;53.064;8.624;2022-12-05T06:07:38;34.27;;;29.13;;
9997;SDS011;5038;53.064;8.624;2022-12-05T06:10:08;32.80;;;28.07;;
9997;SDS011;5038;53.064;8.624;2022-12-05T06:12:36;35.60;;;29.80;;
9997;SDS011;5038;53.064;8.624;2022-12-05T06:15:05;32.27;;;28.87;;
9997;SDS011;5038;53.064;8.624;2022-12-05T06:17:34;32.73;;;28.87;;
9997;SDS011;5038;53.064;8.624;2022-12-05T06:20:02;31.70;;;27.27;;
9997;SDS011;5038;53.064;8.624;2022-12-05T06:22:31;30.67;;;26.87;;
9997;SDS011;5038;53.064;8.624;2022-12-05T06:24:59;34.40;;;28.60;;
9997;SDS011;5038;53.064;8.624;2022-12-05T06:27:29;33.03;;;28.13;;
9997;SDS011;5038;53.064;8.624;2022-12-05T06:29:57;31.20;;;25.50;;
9997;SDS011;5038;53.064;8.624;2022-12-05T06:32:26;32.20;;;27.90;;
9997;SDS011;5038;53.064;8.624;2022-12-05T06:34:55;31.33;;;27.30;;
9997;SDS011;5038;53.064;8.624;2022-12-05T06:37:23;30.70;;;27.00;;
9997;SDS011;5038;53.064;8.624;2022-12-05T06:39:51;28.83;;;25.67;;
9997;SDS011;5038;53.064;8.624;2022-12-05T06:42:19;32.47;;;26.60;;
9997;SDS011;5038;53.064;8.624;2022-12-05T06:44:49;31.30;;;26.90;;
9997;SDS011;5038;53.064;8.624;2022-12-05T06:47:17;31.10;;;27.50;;
9997;SDS011;5038;53.064;8.624;2022-12-05T06:49:45;29.80;;;26.60;;
9997;SDS011;5038;53.064;8.624;2022-12-05T06:52:13;31.40;;;25.43;;
9997;SDS011;5038;53.064;8.624;2022-12-05T06:54:42;31.57;;;28.00;;
9997;SDS011;5038;53.064;8.624;2022-12-05T06:57:12;30.13;;;26.93;;
9997;SDS011;5038;53.064;8.624;2022-12-05T06:59:40;31.47;;;28.10;;
9997;SDS011;5038;53.064;8.624;2022-12-05T07:02:10;31.67;;;27.70;;
9997;SDS011;5038;53.064;8.624;2022-12-05T07:04:38;30.97;;;27.40;;
9997;SDS011;5038;53.064;8.624;2022-12-05T07:07:06;30.50;;;27.20;;
9997;SDS011;5038;53.064;8.624;2022-12-05T07:09:34;29.40;;;26.30;;
9997;SDS011;5038;53.064;8.624;2022-12-05T07:12:22;29.33;;;25.90;;
9997;SDS011;5038;53.064;8.624;2022-12-05T07:14:50;27.67;;;24.20;;
9997;SDS011;5038;53.064;8.624;2022-12-05T07:17:20;28.83;;;23.70;;
9997;SDS011;5038;53.064;8.624;2022-12-05T07:19:48;27.77;;;24.77;;
9997;SDS011;5038;53.064;8.624;2022-12-05T07:22:18;26.47;;;22.63;;
9997;SDS011;5038;53.064;8.624;2022-12-05T07:24:47;24.60;;;21.57;;
9997;SDS011;5038;53.064;8.624;2022-12-05T07:27:17;22.17;;;19.87;;
9997;SDS011;5038;53.064;8.624;2022-12-05T07:29:53;23.03;;;20.10;;
9997;SDS011;5038;53.064;8.624;2022-12-05T07:32:23;24.87;;;22.10;;
9997;SDS011;5038;53.064;8.624;2022-12-05T07:34:51;30.33;;;27.03;;
9997;SDS011;5038;53.064;8.624;2022-12-05T07:37:21;25.60;;;23.00;;
9997;SDS011;5038;53.064;8.624;2022-12-05T07:39:50;22.03;;;19.83;;
9997;SDS011;5038;53.064;8.624;2022-12-05T07:42:19;29.03;;;25.90;;
9997;SDS011;5038;53.064;8.624;2022-12-05T07:44:47;24.77;;;22.07;;
9997;SDS011;5038;53.064;8.624;2022-12-05T07:47:15;23.43;;;20.93;;
9997;SDS011;5038;53.064;8.624;2022-12-05T07:49:44;23.33;;;20.83;;
9997;SDS011;5038;53.064;8.624;2022-12-05T07:52:12;25.30;;;22.60;;
9997;SDS011;5038;53.064;8.624;2022-12-05T07:54:41;26.17;;;23.37;;
9997;SDS011;5038;53.064;8.624;2022-12-05T07:57:09;27.27;;;23.77;;
9997;SDS011;5038;53.064;8.624;2022-12-05T07:59:37;28.33;;;25.27;;
9997;SDS011;5038;53.064;8.624;2022-12-05T08:02:05;29.10;;;25.30;;
9997;SDS011;5038;53.064;8.624;2022-12-05T08:04:33;29.20;;;26.10;;
9997;SDS011;5038;53.064;8.624;2022-12-05T08:07:02;28.00;;;24.97;;
9997;SDS011;5038;53.064;8.624;2022-12-05T08:09:30;28.30;;;25.30;;
9997;SDS011;5038;53.064;8.624;2022-12-05T08:11:58;30.70;;;27.60;;
9997;SDS011;5038;53.064;8.624;2022-12-05T08:14:27;28.63;;;25.60;;
9997;SDS011;5038;53.064;8.624;2022-12-05T08:16:55;28.00;;;25.00;;
9997;SDS011;5038;53.064;8.624;2022-12-05T08:19:23;27.50;;;24.50;;
9997;SDS011;5038;53.064;8.624;2022-12-05T08:21:52;26.37;;;23.50;;
9997;SDS011;5038;53.064;8.624;2022-12-05T08:24:22;29.63;;;26.47;;
9997;SDS011;5038;53.064;8.624;2022-12-05T08:26:50;27.07;;;24.10;;
9997;SDS011;5038;53.064;8.624;2022-12-05T08:29:19;29.50;;;25.13;;
9997;SDS011;5038;53.064;8.624;2022-12-05T08:31:48;27.77;;;24.70;;
9997;SDS011;5038;53.064;8.624;2022-12-05T08:34:18;27.17;;;24.30;;
9997;SDS011;5038;53.064;8.624;2022-12-05T08:36:47;28.33;;;24.73;;
9997;SDS011;5038;53.064;8.624;2022-12-05T08:39:16;27.77;;;24.53;;
9997;SDS011;5038;53.064;8.624;2022-12-05T08:41:48;25.33;;;22.13;;
9997;SDS011;5038;53.064;8.624;2022-12-05T08:44:17;26.27;;;23.60;;
9997;SDS011;5038;53.064;8.624;2022-12-05T08:46:45;28.20;;;24.83;;
9997;SDS011;5038;53.064;8.624;2022-12-05T08:49:15;25.43;;;22.77;;
9997;SDS011;5038;53.064;8.624;2022-12-05T08:51:45;24.07;;;21.57;;
9997;SDS011;5038;53.064;8.624;2022-12-05T08:54:13;24.60;;;22.10;;
9997;SDS011;5038;53.064;8.624;2022-12-05T08:56:41;25.63;;;22.77;;
9997;SDS011;5038;53.064;8.624;2022-12-05T08:59:11;26.43;;;23.60;;
9997;SDS011;5038;53.064;8.624;2022-12-05T09:01:39;25.23;;;22.43;;
9997;SDS011;5038;53.064;8.624;2022-12-05T09:04:07;26.97;;;23.70;;
9997;SDS011;5038;53.064;8.624;2022-12-05T09:06:36;26.80;;;23.47;;
9997;SDS011;5038;53.064;8.624;2022-12-05T09:09:09;29.73;;;26.63;;
9997;SDS011;5038;53.064;8.624;2022-12-05T09:11:39;28.97;;;25.50;;
9997;SDS011;5038;53.064;8.624;2022-12-05T09:14:13;27.33;;;24.43;;
9997;SDS011;5038;53.064;8.624;2022-12-05T09:16:43;29.53;;;26.43;;
9997;SDS011;5038;53.064;8.624;2022-12-05T09:19:13;28.60;;;25.57;;
9997;SDS011;5038;53.064;8.624;2022-12-05T09:21:42;29.30;;;26.10;;
9997;SDS011;5038;53.064;8.624;2022-12-05T09:24:11;29.20;;;25.97;;
9997;SDS011;5038;53.064;8.624;2022-12-05T09:26:40;30.83;;;26.03;;
9997;SDS011;5038;53.064;8.624;2022-12-05T09:29:08;28.77;;;25.63;;
9997;SDS011;5038;53.064;8.624;2022-12-05T09:31:44;28.07;;;25.13;;
9997;SDS011;5038;53.064;8.624;2022-12-05T09:34:13;28.20;;;25.20;;
9997;SDS011;5038;53.064;8.624;2022-12-05T09:36:44;28.10;;;25.13;;
9997;SDS011;5038;53.064;8.624;2022-12-05T09:39:16;30.23;;;26.13;;
9997;SDS011;5038;53.064;8.624;2022-12-05T09:41:56;29.93;;;26.80;;
9997;SDS011;5038;53.064;8.624;2022-12-05T09:44:39;28.13;;;25.13;;
9997;SDS011;5038;53.064;8.624;2022-12-05T09:47:14;29.17;;;26.07;;
9997;SDS011;5038;53.064;8.624;2022-12-05T09:49:54;28.53;;;25.60;;
9997;SDS011;5038;53.064;8.624;2022-12-05T09:52:26;27.17;;;24.30;;
9997;SDS011;5038;53.064;8.624;2022-12-05T09:54:57;29.23;;;26.07;;
9997;SDS011;5038;53.064;8.624;2022-12-05T09:57:33;28.47;;;25.47;;
9997;SDS011;5038;53.064;8.624;2022-12-05T10:00:05;27.93;;;24.90;;
9997;SDS011;5038;53.064;8.624;2022-12-05T10:02:40;27.10;;;24.20;;
9997;SDS011;5038;53.064;8.624;2022-12-05T10:05:17;24.47;;;21.10;;
9997;SDS011;5038;53.064;8.624;2022-12-05T10:07:52;25.07;;;21.80;;
9997;SDS011;5038;53.064;8.624;2022-12-05T10:10:31;23.43;;;20.90;;
9997;SDS011;5038;53.064;8.624;2022-12-05T10:13:13;26.13;;;22.57;;
9997;SDS011;5038;53.064;8.624;2022-12-05T10:15:49;22.77;;;20.37;;
9997;SDS011;5038;53.064;8.624;2022-12-05T10:18:27;23.50;;;20.93;;
9997;SDS011;5038;53.064;8.624;2022-12-05T10:21:01;22.67;;;20.40;;
9997;SDS011;5038;53.064;8.624;2022-12-05T10:23:34;22.00;;;19.70;;
9997;SDS011;5038;53.064;8.624;2022-12-05T10:26:26;22.87;;;19.73;;
9997;SDS011;5038;53.064;8.624;2022-12-05T10:28:58;23.33;;;20.60;;
9997;SDS011;5038;53.064;8.624;2022-12-05T10:31:32;23.00;;;20.50;;
9997;SDS011;5038;53.064;8.624;2022-12-05T10:34:10;25.10;;;21.90;;
9997;SDS011;5038;53.064;8.624;2022-12-05T10:36:43;23.03;;;20.53;;
9997;SDS011;5038;53.064;8.624;2022-12-05T10:39:21;29.37;;;26.40;;
9997;SDS011;5038;53.064;8.624;2022-12-05T10:41:49;33.37;;;30.07;;
9997;SDS011;5038;53.064;8.624;2022-12-05T10:44:17;21.97;;;19.40;;
9997;SDS011;5038;53.064;8.624;2022-12-05T10:46:46;24.03;;;20.80;;
9997;SDS011;5038;53.064;8.624;2022-12-05T10:49:16;20.90;;;18.60;;
9997;SDS011;5038;53.064;8.624;2022-12-05T10:51:45;19.60;;;17.50;;
9997;SDS011;5038;53.064;8.624;2022-12-05T10:54:16;20.03;;;17.80;;
9997;SDS011;5038;53.064;8.624;2022-12-05T10:56:47;19.30;;;17.30;;
9997;SDS011;5038;53.064;8.624;2022-12-05T10:59:19;19.50;;;17.30;;
9997;SDS011;5038;53.064;8.624;2022-12-05T11:01:50;19.23;;;17.33;;
9997;SDS011;5038;53.064;8.624;2022-12-05T11:04:24;20.23;;;17.37;;
9997;SDS011;5038;53.064;8.624;2022-12-05T11:06:56;18.50;;;16.53;;
9997;SDS011;5038;53.064;8.624;2022-12-05T11:09:26;19.60;;;17.57;;
9997;SDS011;5038;53.064;8.624;2022-12-05T11:12:00;20.93;;;18.83;;
9997;SDS011;5038;53.064;8.624;2022-12-05T11:14:32;21.13;;;18.83;;
9997;SDS011;5038;53.064;8.624;2022-12-05T11:17:02;22.30;;;20.07;;
9997;SDS011;5038;53.064;8.624;2022-12-05T11:19:33;23.80;;;20.67;;
9997;SDS011;5038;53.064;8.624;2022-12-05T11:22:03;25.90;;;23.40;;
9997;SDS011;5038;53.064;8.624;2022-12-05T11:24:34;22.53;;;20.23;;
9997;SDS011;5038;53.064;8.624;2022-12-05T11:27:18;20.80;;;18.53;;
9997;SDS011;5038;53.064;8.624;2022-12-05T11:29:56;24.00;;;19.43;;
9997;SDS011;5038;53.064;8.624;2022-12-05T11:32:26;21.93;;;19.60;;
9997;SDS011;5038;53.064;8.624;2022-12-05T11:35:00;20.80;;;18.73;;
9997;SDS011;5038;53.064;8.624;2022-12-05T11:37:36;19.70;;;17.70;;
9997;SDS011;5038;53.064;8.624;2022-12-05T11:40:13;20.63;;;18.43;;
9997;SDS011;5038;53.064;8.624;2022-12-05T11:42:47;21.83;;;19.63;;
9997;SDS011;5038;53.064;8.624;2022-12-05T11:45:35;20.07;;;18.07;;
9997;SDS011;5038;53.064;8.624;2022-12-05T11:48:21;19.37;;;17.37;;
9997;SDS011;5038;53.064;8.624;2022-12-05T11:51:05;20.30;;;18.20;;
9997;SDS011;5038;53.064;8.624;2022-12-05T11:53:58;20.93;;;18.73;;
9997;SDS011;5038;53.064;8.624;2022-12-05T11:57:10;19.53;;;17.53;;
9997;SDS011;5038;53.064;8.624;2022-12-05T11:59:54;21.63;;;19.37;;
9997;SDS011;5038;53.064;8.624;2022-12-05T12:02:42;20.57;;;18.20;;
9997;SDS011;5038;53.064;8.624;2022-12-05T12:05:28;20.63;;;18.57;;
9997;SDS011;5038;53.064;8.624;2022-12-05T12:08:08;23.20;;;19.03;;
9997;SDS011;5038;53.064;8.624;2022-12-05T12:10:47;22.00;;;19.70;;
9997;SDS011;5038;53.064;8.624;2022-12-05T12:13:26;21.50;;;19.20;;
9997;SDS011;5038;53.064;8.624;2022-12-05T12:16:07;19.40;;;17.50;;
9997;SDS011;5038;53.064;8.624;2022-12-05T12:18:51;20.27;;;18.17;;
9997;SDS011;5038;53.064;8.624;2022-12-05T12:21:31;19.83;;;17.83;;
9997;SDS011;5038;53.064;8.624;2022-12-05T12:24:13;20.57;;;18.40;;
9997;SDS011;5038;53.064;8.624;2022-12-05T12:26:50;21.77;;;19.47;;
9997;SDS011;5038;53.064;8.624;2022-12-05T12:29:32;20.90;;;18.73;;
9997;SDS011;5038;53.064;8.624;2022-12-05T12:32:15;20.60;;;18.40;;
9997;SDS011;5038;53.064;8.624;2022-12-05T12:34:55;20.67;;;18.50;;
9997;SDS011;5038;53.064;8.624;2022-12-05T12:37:58;21.10;;;18.80;;
9997;SDS011;5038;53.064;8.624;2022-12-05T12:40:47;18.27;;;16.47;;
9997;SDS011;5038;53.064;8.624;2022-12-05T12:43:24;28.37;;;25.67;;
9997;SDS011;5038;53.064;8.624;2022-12-05T12:46:24;22.20;;;20.03;;
9997;SDS011;5038;53.064;8.624;2022-12-05T12:49:05;31.13;;;22.53;;
9997;SDS011;5038;53.064;8.624;2022-12-05T12:51:56;26.57;;;22.20;;
9997;SDS011;5038;53.064;8.624;2022-12-05T12:54:42;21.17;;;18.17;;
9997;SDS011;5038;53.064;8.624;2022-12-05T12:57:37;22.20;;;19.90;;
9997;SDS011;5038;53.064;8.624;2022-12-05T13:00:21;24.40;;;19.27;;
9997;SDS011;5038;53.064;8.624;2022-12-05T13:02:53;21.23;;;19.03;;
9997;SDS011;5038;53.064;8.624;2022-12-05T13:05:29;21.03;;;18.50;;
9997;SDS011;5038;53.064;8.624;2022-12-05T13:08:02;21.40;;;18.87;;
9997;SDS011;5038;53.064;8.624;2022-12-05T13:10:34;21.80;;;19.50;;
9997;SDS011;5038;53.064;8.624;2022-12-05T13:13:09;19.73;;;17.80;;
9997;SDS011;5038;53.064;8.624;2022-12-05T13:15:42;22.53;;;19.83;;
9997;SDS011;5038;53.064;8.624;2022-12-05T13:18:14;21.70;;;19.40;;
9997;SDS011;5038;53.064;8.624;2022-12-05T13:20:44;21.33;;;19.33;;
9997;SDS011;5038;53.064;8.624;2022-12-05T13:23:17;23.10;;;20.80;;
9997;SDS011;5038;53.064;8.624;2022-12-05T13:25:47;21.13;;;18.93;;
9997;SDS011;5038;53.064;8.624;2022-12-05T13:28:22;20.80;;;18.70;;
9997;SDS011;5038;53.064;8.624;2022-12-05T13:30:54;20.50;;;18.30;;
9997;SDS011;5038;53.064;8.624;2022-12-05T13:33:28;21.03;;;18.93;;
9997;SDS011;5038;53.064;8.624;2022-12-05T13:36:02;19.33;;;17.43;;
9997;SDS011;5038;53.064;8.624;2022-12-05T13:39:00;20.20;;;18.10;;
9997;SDS011;5038;53.064;8.624;2022-12-05T13:41:49;20.13;;;18.07;;
9997;SDS011;5038;53.064;8.624;2022-12-05T13:44:38;18.13;;;16.33;;
9997;SDS011;5038;53.064;8.624;2022-12-05T13:47:19;18.67;;;16.77;;
9997;SDS011;5038;53.064;8.624;2022-12-05T13:49:53;19.33;;;17.53;;
9997;SDS011;5038;53.064;8.624;2022-12-05T13:52:27;18.40;;;16.57;;
9997;SDS011;5038;53.064;8.624;2022-12-05T13:54:59;19.50;;;17.40;;
9997;SDS011;5038;53.064;8.624;2022-12-05T13:57:45;18.50;;;16.53;;
9997;SDS011;5038;53.064;8.624;2022-12-05T14:00:20;18.37;;;16.50;;
9997;SDS011;5038;53.064;8.624;2022-12-05T14:02:53;19.43;;;17.37;;
9997;SDS011;5038;53.064;8.624;2022-12-05T14:05:31;19.27;;;17.40;;
9997;SDS011;5038;53.064;8.624;2022-12-05T14:11:14;20.60;;;18.60;;
9997;SDS011;5038;53.064;8.624;2022-12-05T14:13:43;20.90;;;17.63;;
9997;SDS011;5038;53.064;8.624;2022-12-05T14:19:26;17.33;;;15.67;;
9997;SDS011;5038;53.064;8.624;2022-12-05T14:22:16;17.70;;;15.90;;
9997;SDS011;5038;53.064;8.624;2022-12-05T14:24:53;17.80;;;16.00;;
9997;SDS011;5038;53.064;8.624;2022-12-05T14:27:28;17.93;;;16.13;;
9997;SDS011;5038;53.064;8.624;2022-12-05T14:30:15;16.73;;;14.93;;
9997;SDS011;5038;53.064;8.624;2022-12-05T14:32:53;16.80;;;15.10;;
9997;SDS011;5038;53.064;8.624;2022-12-05T14:35:23;18.23;;;15.73;;
9997;SDS011;5038;53.064;8.624;2022-12-05T14:37:57;15.83;;;14.27;;
9997;SDS011;5038;53.064;8.624;2022-12-05T14:40:29;16.20;;;14.70;;
9997;SDS011;5038;53.064;8.624;2022-12-05T14:43:00;17.33;;;15.27;;
9997;SDS011;5038;53.064;8.624;2022-12-05T14:45:32;17.50;;;15.60;;
9997;SDS011;5038;53.064;8.624;2022-12-05T14:48:26;17.70;;;15.83;;
9997;SDS011;5038;53.064;8.624;2022-12-05T14:50:57;16.63;;;14.90;;
9997;SDS011;5038;53.064;8.624;2022-12-05T14:53:32;17.23;;;15.43;;
9997;SDS011;5038;53.064;8.624;2022-12-05T14:56:13;17.27;;;15.47;;
9997;SDS011;5038;53.064;8.624;2022-12-05T14:58:46;18.60;;;15.20;;
9997;SDS011;5038;53.064;8.624;2022-12-05T15:01:19;17.60;;;15.10;;
9997;SDS011;5038;53.064;8.624;2022-12-05T15:04:04;18.43;;;16.63;;
9997;SDS011;5038;53.064;8.624;2022-12-05T15:06:36;19.13;;;17.00;;
9997;SDS011;5038;53.064;8.624;2022-12-05T15:09:23;17.80;;;15.90;;
9997;SDS011;5038;53.064;8.624;2022-12-05T15:12:09;16.80;;;14.63;;
9997;SDS011;5038;53.064;8.624;2022-12-05T15:14:42;16.87;;;15.13;;
9997;SDS011;5038;53.064;8.624;2022-12-05T15:17:14;19.57;;;16.17;;
9997;SDS011;5038;53.064;8.624;2022-12-05T15:19:51;18.33;;;16.27;;
9997;SDS011;5038;53.064;8.624;2022-12-05T15:22:26;16.93;;;15.23;;
9997;SDS011;5038;53.064;8.624;2022-12-05T15:24:55;17.23;;;15.27;;
9997;SDS011;5038;53.064;8.624;2022-12-05T15:27:24;15.60;;;13.90;;
9997;SDS011;5038;53.064;8.624;2022-12-05T15:29:52;19.27;;;16.33;;
9997;SDS011;5038;53.064;8.624;2022-12-05T15:32:23;17.93;;;15.70;;
9997;SDS011;5038;53.064;8.624;2022-12-05T15:34:56;18.13;;;16.20;;